Decoded Metar for PAOM (NOME in AK, USA) (IATA:OME) | Meteo·Mobile Aviation Weather
aviador You're here:

PAOM Decoded Metar

NOME in AK, USA
Report Time2018-09-19 20:53:00
UTC Time2018-09-19 21:09:41
Flight Rules vfr VFR
Wind300° at 06 kt
W.Decomp.*RWY 28: 6.0 kt HW 0.6 kt RCW
RWY 21: 1.5 kt HW 5.8 kt RCW
W.Rank300° ranks 23
Current wind is below 300° avg. (7.5)
Visibility9999 m
Phenomena:N/A
Clouds:Overcast 050 Hf
Expected CloudBase > 800 ft AGL from Temp-Dew spread
Ceiling5,000 ft
Temp09°C (ISA -6)
Dew Point07°C (87% RH)
AAT6.1°C
QNH1018 hPa
Density Alt-709 ft
Elevation36 ft
Report Wrong Elevation
Raw Report
PAOM 192053Z 30006KT 10SM OVC050 09/07 A3006 RMK AO2 SLP177
T00940072 53000=

Extra information for PAOM:More info

Metar Taf Metar & Taf Last 4 Metars F.Rules Stats Wind Profile Meteogram Temp Stats Airport Information Weather charts Add Link Nearby VenuesMetar ALERT Operation Metar Decoded Social comments

AIRNAV info for PAOM